createdAt,value
2023-05-06T00:01:58.612Z,8.52
2023-05-06T00:04:26.861Z,8.73
2023-05-06T00:06:54.310Z,9.38
2023-05-06T00:09:21.435Z,10.27
2023-05-06T00:11:48.998Z,8.50
2023-05-06T00:14:16.474Z,10.98
2023-05-06T00:16:43.801Z,9.25
2023-05-06T00:19:11.389Z,9.10
2023-05-06T00:21:38.922Z,8.80
2023-05-06T00:24:06.233Z,8.15
2023-05-06T00:26:33.644Z,8.38
2023-05-06T00:29:00.787Z,7.87
2023-05-06T00:31:28.054Z,9.95
2023-05-06T00:33:55.452Z,7.70
2023-05-06T00:36:22.566Z,7.87
2023-05-06T00:38:49.656Z,7.57
2023-05-06T00:41:17.042Z,7.75
2023-05-06T00:43:44.173Z,7.50
2023-05-06T00:46:11.728Z,8.38
2023-05-06T00:48:39.864Z,7.65
2023-05-06T00:51:07.114Z,7.75
2023-05-06T00:53:34.282Z,7.65
2023-05-06T00:56:01.732Z,7.90
2023-05-06T00:58:28.894Z,7.43
2023-05-06T01:00:56.590Z,8.15
2023-05-06T01:03:24.256Z,7.55
2023-05-06T01:06:02.495Z,7.80
2023-05-06T01:08:37.719Z,6.43
2023-05-06T01:11:17.820Z,7.78
2023-05-06T01:13:58.823Z,7.10
2023-05-06T01:16:27.292Z,7.45
2023-05-06T01:18:55.109Z,7.20
2023-05-06T01:21:23.159Z,7.20
2023-05-06T01:23:56.649Z,7.55
2023-05-06T01:26:24.661Z,7.65
2023-05-06T01:28:51.994Z,7.82
2023-05-06T01:31:27.297Z,7.40
2023-05-06T01:34:00.260Z,7.22
2023-05-06T01:36:53.744Z,7.50
2023-05-06T01:39:25.470Z,7.60
2023-05-06T01:41:54.241Z,7.95
2023-05-06T01:44:22.677Z,7.72
2023-05-06T01:46:50.313Z,8.55
2023-05-06T01:49:19.178Z,7.05
2023-05-06T01:51:50.385Z,7.40
2023-05-06T01:54:18.040Z,8.43
2023-05-06T01:56:45.291Z,7.35
2023-05-06T01:59:12.809Z,7.70
2023-05-06T02:01:40.044Z,7.85
2023-05-06T02:04:07.623Z,8.00
2023-05-06T02:06:34.974Z,7.80
2023-05-06T02:09:02.225Z,7.40
2023-05-06T02:11:30.538Z,7.65
2023-05-06T02:13:59.195Z,9.48
2023-05-06T02:16:29.460Z,8.65
2023-05-06T02:18:56.966Z,9.55
2023-05-06T02:21:24.193Z,9.65
2023-05-06T02:23:51.640Z,10.93
2023-05-06T02:26:18.796Z,7.40
2023-05-06T02:28:45.966Z,7.47
2023-05-06T02:31:15.011Z,7.53
2023-05-06T02:33:42.422Z,7.32
2023-05-06T02:36:11.269Z,7.62
2023-05-06T02:38:38.787Z,7.18
2023-05-06T02:41:05.977Z,6.43
2023-05-06T02:43:33.166Z,6.90
2023-05-06T02:46:00.699Z,7.18
2023-05-06T02:48:27.917Z,8.15
2023-05-06T02:50:55.108Z,7.80
2023-05-06T02:53:22.613Z,6.95
2023-05-06T02:55:49.819Z,7.32
2023-05-06T02:58:17.021Z,7.12
2023-05-06T03:00:44.525Z,7.35
2023-05-06T03:03:11.777Z,7.37
2023-05-06T03:05:38.947Z,7.50
2023-05-06T03:08:06.537Z,7.15
2023-05-06T03:10:34.021Z,7.53
2023-05-06T03:13:01.578Z,6.57
2023-05-06T03:15:29.412Z,8.07
2023-05-06T03:17:56.750Z,7.00
2023-05-06T03:20:24.559Z,6.62
2023-05-06T03:22:52.503Z,7.53
2023-05-06T03:25:20.097Z,6.35
2023-05-06T03:27:47.820Z,6.45
2023-05-06T03:30:16.222Z,7.55
2023-05-06T03:32:43.872Z,6.18
2023-05-06T03:35:11.725Z,7.35
2023-05-06T03:37:39.803Z,6.68
2023-05-06T03:40:07.838Z,6.68
2023-05-06T03:42:35.079Z,7.22
2023-05-06T03:45:03.183Z,6.95
2023-05-06T03:47:31.588Z,6.93
2023-05-06T03:49:59.563Z,7.07
2023-05-06T03:52:27.196Z,6.87
2023-05-06T03:54:54.567Z,6.22
2023-05-06T03:57:21.799Z,6.65
2023-05-06T03:59:49.623Z,8.55
2023-05-06T04:02:17.091Z,9.30
2023-05-06T04:04:44.789Z,11.85
2023-05-06T04:07:12.220Z,11.60
2023-05-06T04:09:39.365Z,8.75
2023-05-06T04:12:07.190Z,8.15
2023-05-06T04:14:35.019Z,9.73
2023-05-06T04:17:02.956Z,8.07
2023-05-06T04:19:30.520Z,12.52
2023-05-06T04:21:58.674Z,15.15
2023-05-06T04:24:28.504Z,17.62
2023-05-06T04:26:57.538Z,24.80
2023-05-06T04:29:25.280Z,12.98
2023-05-06T04:31:53.999Z,18.25
2023-05-06T04:34:21.721Z,39.78
2023-05-06T04:36:49.524Z,21.05
2023-05-06T04:39:18.083Z,25.58
2023-05-06T04:41:46.110Z,22.55
2023-05-06T04:44:13.990Z,9.40
2023-05-06T04:46:42.088Z,22.45
2023-05-06T04:49:11.901Z,8.73
2023-05-06T04:51:39.966Z,8.32
2023-05-06T04:54:07.349Z,11.23
2023-05-06T04:56:35.270Z,7.87
2023-05-06T04:59:02.488Z,8.20
2023-05-06T05:01:29.864Z,8.40
2023-05-06T05:03:57.410Z,8.88
2023-05-06T05:06:24.572Z,8.30
2023-05-06T05:08:54.265Z,9.50
2023-05-06T05:11:23.483Z,12.85
2023-05-06T05:13:51.147Z,9.95
2023-05-06T05:16:18.431Z,9.65
2023-05-06T05:18:46.553Z,9.70
2023-05-06T05:21:15.712Z,8.70
2023-05-06T05:23:42.937Z,8.98
2023-05-06T05:26:10.446Z,13.35
2023-05-06T05:28:38.415Z,10.18
2023-05-06T05:31:06.340Z,10.23
2023-05-06T05:33:35.700Z,9.73
2023-05-06T05:36:04.187Z,9.68
2023-05-06T05:38:31.510Z,10.75
2023-05-06T05:40:59.474Z,27.50
2023-05-06T05:43:27.049Z,9.77
2023-05-06T05:45:54.400Z,9.07
2023-05-06T05:48:21.888Z,9.40
2023-05-06T05:50:49.075Z,9.13
2023-05-06T05:53:16.280Z,8.82
2023-05-06T05:55:43.903Z,9.38
2023-05-06T05:58:11.701Z,8.57
2023-05-06T06:00:39.175Z,8.63
2023-05-06T06:03:07.055Z,7.65
2023-05-06T06:05:34.562Z,6.65
2023-05-06T06:08:03.794Z,6.50
2023-05-06T06:10:32.075Z,7.82
2023-05-06T06:13:00.965Z,8.70
2023-05-06T06:15:29.409Z,8.60
2023-05-06T06:17:57.063Z,8.07
2023-05-06T06:20:25.368Z,8.40
2023-05-06T06:22:53.134Z,8.18
2023-05-06T06:25:21.589Z,6.78
2023-05-06T06:27:48.834Z,7.95
2023-05-06T06:30:16.170Z,8.02
2023-05-06T06:32:51.660Z,8.25
2023-05-06T06:35:20.160Z,8.60
2023-05-06T06:37:47.674Z,8.63
2023-05-06T06:40:15.257Z,8.48
2023-05-06T06:42:42.451Z,7.80
2023-05-06T06:45:17.264Z,8.43
2023-05-06T06:47:44.450Z,9.35
2023-05-06T06:50:12.049Z,7.93
2023-05-06T06:52:39.213Z,8.45
2023-05-06T06:55:06.797Z,7.25
2023-05-06T06:57:34.362Z,9.07
2023-05-06T07:00:01.578Z,7.82
2023-05-06T07:02:29.264Z,8.77
2023-05-06T07:04:56.773Z,10.68
2023-05-06T07:07:24.015Z,8.85
2023-05-06T07:09:51.280Z,8.93
2023-05-06T07:12:18.736Z,7.18
2023-05-06T07:14:46.363Z,7.90
2023-05-06T07:17:13.666Z,8.20
2023-05-06T07:19:41.281Z,8.27
2023-05-06T07:22:08.491Z,7.10
2023-05-06T07:24:35.752Z,7.72
2023-05-06T07:27:04.250Z,7.30
2023-05-06T07:29:31.511Z,7.00
2023-05-06T07:31:58.674Z,8.75
2023-05-06T07:34:26.139Z,7.95
2023-05-06T07:36:53.292Z,8.65
2023-05-06T07:39:20.626Z,9.30
2023-05-06T07:41:48.100Z,10.10
2023-05-06T07:44:15.256Z,9.32
2023-05-06T07:46:42.653Z,9.63
2023-05-06T07:49:10.343Z,9.63
2023-05-06T07:51:37.559Z,9.45
2023-05-06T07:54:04.815Z,9.55
2023-05-06T07:56:32.275Z,8.02
2023-05-06T07:59:00.096Z,8.38
2023-05-06T08:01:28.996Z,7.20
2023-05-06T08:03:56.602Z,8.48
2023-05-06T08:06:24.147Z,7.57
2023-05-06T08:08:51.341Z,8.25
2023-05-06T08:11:19.458Z,7.95
2023-05-06T08:13:47.234Z,9.00
2023-05-06T08:16:14.512Z,6.07
2023-05-06T08:18:42.097Z,7.18
2023-05-06T08:21:09.356Z,8.20
2023-05-06T08:23:36.558Z,7.00
2023-05-06T08:26:04.052Z,6.90
2023-05-06T08:28:31.611Z,8.07
2023-05-06T08:30:58.809Z,8.30
2023-05-06T08:33:26.275Z,8.00
2023-05-06T08:35:57.570Z,10.25
2023-05-06T08:38:25.969Z,8.57
2023-05-06T08:40:54.353Z,9.02
2023-05-06T08:43:22.028Z,8.63
2023-05-06T08:45:49.675Z,6.90
2023-05-06T08:48:17.054Z,7.37
2023-05-06T08:50:44.427Z,20.80
2023-05-06T08:53:13.411Z,6.87
2023-05-06T08:55:42.081Z,5.85
2023-05-06T08:58:11.458Z,6.53
2023-05-06T09:00:39.270Z,6.87
2023-05-06T09:03:06.694Z,8.00
2023-05-06T09:05:33.926Z,6.22
2023-05-06T09:08:01.287Z,7.82
2023-05-06T09:10:33.021Z,6.18
2023-05-06T09:13:00.171Z,7.37
2023-05-06T09:15:27.687Z,7.37
2023-05-06T09:17:55.373Z,7.28
2023-05-06T09:20:22.634Z,6.07
2023-05-06T09:22:50.763Z,6.97
2023-05-06T09:25:17.961Z,6.62
2023-05-06T09:27:45.070Z,6.57
2023-05-06T09:30:13.411Z,6.65
2023-05-06T09:32:41.165Z,6.68
2023-05-06T09:35:10.392Z,5.75
2023-05-06T09:37:38.165Z,5.25
2023-05-06T09:40:06.063Z,5.20
2023-05-06T09:42:34.156Z,6.20
2023-05-06T09:45:02.894Z,6.55
2023-05-06T09:47:35.788Z,5.97
2023-05-06T09:50:03.881Z,8.88
2023-05-06T09:52:32.545Z,4.80
2023-05-06T09:55:00.188Z,5.87
2023-05-06T09:57:30.826Z,5.97
2023-05-06T09:59:58.319Z,5.07
2023-05-06T10:02:26.688Z,4.70
2023-05-06T10:04:57.373Z,5.05
2023-05-06T10:07:28.760Z,5.32
2023-05-06T10:09:57.020Z,5.25
2023-05-06T10:12:24.257Z,5.40
2023-05-06T10:14:51.485Z,7.15
2023-05-06T10:17:19.112Z,5.53
2023-05-06T10:19:46.756Z,4.57
2023-05-06T10:22:34.628Z,4.15
2023-05-06T10:25:19.336Z,3.40
2023-05-06T10:27:48.139Z,3.87
2023-05-06T10:30:19.237Z,4.00
2023-05-06T10:32:46.917Z,3.17
2023-05-06T10:35:41.453Z,4.25
2023-05-06T10:38:34.685Z,3.67
2023-05-06T10:41:02.455Z,3.40
2023-05-06T10:43:34.148Z,3.62
2023-05-06T10:46:09.197Z,3.50
2023-05-06T10:48:38.942Z,3.90
2023-05-06T10:51:27.205Z,3.90
2023-05-06T10:54:04.654Z,3.42
2023-05-06T10:56:57.296Z,3.05
2023-05-06T10:59:26.504Z,3.30
2023-05-06T11:02:02.524Z,3.50
2023-05-06T11:04:31.313Z,3.72
2023-05-06T11:07:15.017Z,3.47
2023-05-06T11:12:22.950Z,3.87
2023-05-06T11:14:50.415Z,3.55
2023-05-06T11:17:31.870Z,3.10
2023-05-06T11:20:31.919Z,4.07
2023-05-06T11:22:59.061Z,4.12
2023-05-06T11:25:40.256Z,4.10
2023-05-06T11:28:11.761Z,6.37
2023-05-06T11:30:42.211Z,4.80
2023-05-06T11:33:14.388Z,4.35
2023-05-06T11:35:41.904Z,4.37
2023-05-06T11:38:09.310Z,3.67
2023-05-06T11:40:36.890Z,4.85
2023-05-06T11:43:14.076Z,4.00
2023-05-06T11:45:42.058Z,3.20
2023-05-06T11:48:14.762Z,4.35
2023-05-06T11:50:47.225Z,6.05
2023-05-06T11:53:18.936Z,3.80
2023-05-06T11:55:46.878Z,3.62
2023-05-06T11:58:24.985Z,4.57
2023-05-06T12:01:03.025Z,3.55
2023-05-06T12:03:31.834Z,3.53
2023-05-06T12:05:59.494Z,4.05
2023-05-06T12:08:37.238Z,4.37
2023-05-06T12:11:06.798Z,3.72
2023-05-06T12:13:37.902Z,4.62
2023-05-06T12:16:08.282Z,3.47
2023-05-06T12:18:36.232Z,3.47
2023-05-06T12:21:03.700Z,3.30
2023-05-06T12:23:31.285Z,3.60
2023-05-06T12:26:06.197Z,3.35
2023-05-06T12:28:36.248Z,3.78
2023-05-06T12:31:23.196Z,3.65
2023-05-06T12:33:50.930Z,3.87
2023-05-06T12:36:18.840Z,3.17
2023-05-06T12:39:02.004Z,3.92
2023-05-06T12:41:43.722Z,3.90
2023-05-06T12:44:33.757Z,5.28
2023-05-06T12:47:05.635Z,3.67
2023-05-06T12:49:59.108Z,3.00
2023-05-06T12:52:29.572Z,3.72
2023-05-06T12:54:57.211Z,3.35
2023-05-06T12:57:24.383Z,3.00
2023-05-06T12:59:53.746Z,3.92
2023-05-06T13:02:21.140Z,3.15
2023-05-06T13:04:49.444Z,3.95
2023-05-06T13:07:17.079Z,3.60
2023-05-06T13:09:45.053Z,3.50
2023-05-06T13:12:12.324Z,3.92
2023-05-06T13:14:40.413Z,3.45
2023-05-06T13:17:08.270Z,3.70
2023-05-06T13:19:35.903Z,3.15
2023-05-06T13:22:03.403Z,3.30
2023-05-06T13:24:32.188Z,3.62
2023-05-06T13:27:01.353Z,3.15
2023-05-06T13:29:29.772Z,3.58
2023-05-06T13:31:57.646Z,3.15
2023-05-06T13:34:24.943Z,4.47
2023-05-06T13:36:54.600Z,3.20
2023-05-06T13:39:21.929Z,3.45
2023-05-06T13:41:52.578Z,3.45
2023-05-06T13:44:20.515Z,3.30
2023-05-06T13:46:48.278Z,3.50
2023-05-06T13:49:15.643Z,4.12
2023-05-06T13:51:43.096Z,5.00
2023-05-06T13:54:10.316Z,4.40
2023-05-06T13:56:37.593Z,4.68
2023-05-06T13:59:05.087Z,4.70
2023-05-06T14:01:32.346Z,4.68
2023-05-06T14:04:00.180Z,5.12
2023-05-06T14:06:27.714Z,4.70
2023-05-06T14:08:55.722Z,5.82
2023-05-06T14:11:23.192Z,5.00
2023-05-06T14:13:50.432Z,5.18
2023-05-06T14:16:17.696Z,5.03
2023-05-06T14:18:45.251Z,4.75
2023-05-06T14:21:12.325Z,4.93
2023-05-06T14:23:39.525Z,5.50
2023-05-06T14:26:07.472Z,5.10
2023-05-06T14:28:34.642Z,4.65
2023-05-06T14:31:01.856Z,6.00
2023-05-06T14:33:29.326Z,4.62
2023-05-06T14:35:58.234Z,4.93
2023-05-06T14:38:25.383Z,4.90
2023-05-06T14:40:52.827Z,5.05
2023-05-06T14:43:20.233Z,5.10
2023-05-06T14:45:47.600Z,5.25
2023-05-06T14:48:15.647Z,5.68
2023-05-06T14:50:42.771Z,5.15
2023-05-06T14:53:09.940Z,4.57
2023-05-06T14:55:37.496Z,5.07
2023-05-06T14:58:04.700Z,5.15
2023-05-06T15:00:31.865Z,5.65
2023-05-06T15:02:59.557Z,5.20
2023-05-06T15:05:27.046Z,5.47
2023-05-06T15:07:54.264Z,5.15
2023-05-06T15:10:21.993Z,5.57
2023-05-06T15:12:49.151Z,4.85
2023-05-06T15:15:16.320Z,5.65
2023-05-06T15:17:43.803Z,5.43
2023-05-06T15:20:11.462Z,5.78
2023-05-06T15:22:39.666Z,4.75
2023-05-06T15:25:09.368Z,4.97
2023-05-06T15:27:39.392Z,7.05
2023-05-06T15:30:08.436Z,7.97
2023-05-06T15:32:35.626Z,5.87
2023-05-06T15:35:04.970Z,5.05
2023-05-06T15:37:33.792Z,5.32
2023-05-06T15:40:01.026Z,6.68
2023-05-06T15:42:29.511Z,6.97
2023-05-06T15:44:57.750Z,5.93
2023-05-06T15:47:25.023Z,6.35
2023-05-06T15:49:55.028Z,6.40
2023-05-06T15:52:24.673Z,6.95
2023-05-06T15:54:51.845Z,6.37
2023-05-06T15:57:19.162Z,6.00
2023-05-06T15:59:47.041Z,6.07
2023-05-06T16:02:26.912Z,5.80
2023-05-06T16:04:54.898Z,6.18
2023-05-06T16:07:22.211Z,7.30
2023-05-06T16:09:50.300Z,6.12
2023-05-06T16:12:17.685Z,7.65
2023-05-06T16:14:44.790Z,5.97
2023-05-06T16:17:11.890Z,6.37
2023-05-06T16:19:39.379Z,6.43
2023-05-06T16:22:06.458Z,6.12
2023-05-06T16:24:33.569Z,7.37
2023-05-06T16:27:01.192Z,6.20
2023-05-06T16:29:28.306Z,5.78
2023-05-06T16:31:55.452Z,5.70
2023-05-06T16:34:22.943Z,5.50
2023-05-06T16:36:50.693Z,5.78
2023-05-06T16:39:17.821Z,23.98
2023-05-06T16:41:46.501Z,11.52
2023-05-06T16:44:13.606Z,21.55
2023-05-06T16:46:40.809Z,26.10
2023-05-06T16:49:08.462Z,15.88
2023-05-06T16:51:36.193Z,17.05
2023-05-06T16:54:03.427Z,17.55
2023-05-06T16:56:43.901Z,11.12
2023-05-06T16:59:15.604Z,9.52
2023-05-06T17:01:43.059Z,12.02
2023-05-06T17:04:10.389Z,10.48
2023-05-06T17:06:37.516Z,9.05
2023-05-06T17:09:04.986Z,11.00
2023-05-06T17:11:32.064Z,7.10
2023-05-06T17:13:59.169Z,7.70
2023-05-06T17:16:26.608Z,7.22
2023-05-06T17:18:53.744Z,9.27
2023-05-06T17:21:21.363Z,16.50
2023-05-06T17:23:48.791Z,22.27
2023-05-06T17:26:17.796Z,12.20
2023-05-06T17:28:45.134Z,7.97
2023-05-06T17:31:14.485Z,9.88
2023-05-06T17:33:41.616Z,10.50
2023-05-06T17:36:09.006Z,10.55
2023-05-06T17:38:36.544Z,9.75
2023-05-06T17:41:03.697Z,14.55
2023-05-06T17:43:30.872Z,12.35
2023-05-06T17:45:58.368Z,10.70
2023-05-06T17:48:25.580Z,10.32
2023-05-06T17:50:52.706Z,9.55
2023-05-06T17:53:20.137Z,9.18
2023-05-06T17:55:47.235Z,9.15
2023-05-06T17:58:14.302Z,10.85
2023-05-06T18:00:42.137Z,12.65
2023-05-06T18:03:09.606Z,10.95
2023-05-06T18:05:36.826Z,7.55
2023-05-06T18:08:04.852Z,7.72
2023-05-06T18:10:32.312Z,7.15
2023-05-06T18:12:59.458Z,20.25
2023-05-06T18:15:26.600Z,37.70
2023-05-06T18:17:54.291Z,19.33
2023-05-06T18:20:21.472Z,13.38
2023-05-06T18:22:48.884Z,11.35
2023-05-06T18:25:16.345Z,10.27
2023-05-06T18:27:43.568Z,13.73
2023-05-06T18:30:11.003Z,11.15
2023-05-06T18:32:38.518Z,10.95
2023-05-06T18:35:06.075Z,9.13
2023-05-06T18:37:33.231Z,9.02
2023-05-06T18:40:00.748Z,8.93
2023-05-06T18:42:27.835Z,9.45
2023-05-06T18:44:56.388Z,10.45
2023-05-06T18:47:25.697Z,8.77
2023-05-06T18:49:57.528Z,7.78
2023-05-06T18:52:24.976Z,8.23
2023-05-06T18:54:52.129Z,7.32
2023-05-06T18:57:23.524Z,7.05
2023-05-06T18:59:51.059Z,7.97
2023-05-06T19:02:18.394Z,7.90
2023-05-06T19:04:45.504Z,8.95
2023-05-06T19:07:16.159Z,7.62
2023-05-06T19:09:43.521Z,8.88
2023-05-06T19:12:11.494Z,9.40
2023-05-06T19:14:39.261Z,10.13
2023-05-06T19:17:06.758Z,9.85
2023-05-06T19:19:36.066Z,8.60
2023-05-06T19:22:04.149Z,11.25
2023-05-06T19:24:31.425Z,11.40
2023-05-06T19:26:58.609Z,8.75
2023-05-06T19:29:26.069Z,10.98
2023-05-06T19:31:53.278Z,11.50
2023-05-06T19:34:20.897Z,16.12
2023-05-06T19:36:48.344Z,17.15
2023-05-06T19:39:16.371Z,12.35
2023-05-06T19:41:43.596Z,13.95
2023-05-06T19:44:11.087Z,16.87
2023-05-06T19:46:38.326Z,10.02
2023-05-06T19:49:06.401Z,12.27
2023-05-06T19:51:33.868Z,10.52
2023-05-06T19:54:01.051Z,11.57
2023-05-06T19:56:28.214Z,15.15
2023-05-06T19:58:55.667Z,9.63
2023-05-06T20:01:26.128Z,10.32
2023-05-06T20:03:55.067Z,11.10
2023-05-06T20:06:22.332Z,9.52
2023-05-06T20:08:49.502Z,9.35
2023-05-06T20:11:16.956Z,8.52
2023-05-06T20:13:44.179Z,8.23
2023-05-06T20:16:12.496Z,7.70
2023-05-06T20:18:40.602Z,8.55
2023-05-06T20:21:07.783Z,8.73
2023-05-06T20:23:34.960Z,9.00
2023-05-06T20:26:02.338Z,9.20
2023-05-06T20:28:29.910Z,8.70
2023-05-06T20:30:59.677Z,9.13
2023-05-06T20:33:27.583Z,8.57
2023-05-06T20:35:55.451Z,8.32
2023-05-06T20:38:22.666Z,9.20
2023-05-06T20:40:50.276Z,8.57
2023-05-06T20:43:17.421Z,8.77
2023-05-06T20:45:44.627Z,8.95
2023-05-06T20:48:13.669Z,8.20
2023-05-06T20:50:42.489Z,8.60
2023-05-06T20:53:09.691Z,8.13
2023-05-06T20:55:37.235Z,16.02
2023-05-06T20:58:04.448Z,15.93
2023-05-06T21:00:31.663Z,14.48
2023-05-06T21:02:59.408Z,13.68
2023-05-06T21:05:26.811Z,11.80
2023-05-06T21:07:53.996Z,12.95
2023-05-06T21:10:21.518Z,12.75
2023-05-06T21:12:50.284Z,12.52
2023-05-06T21:15:17.917Z,18.62
2023-05-06T21:17:45.436Z,15.32
2023-05-06T21:20:13.150Z,14.23
2023-05-06T21:22:40.959Z,14.32
2023-05-06T21:25:09.083Z,13.90
2023-05-06T21:27:36.572Z,11.27
2023-05-06T21:30:04.288Z,12.48
2023-05-06T21:32:33.120Z,12.82
2023-05-06T21:35:02.330Z,11.18
2023-05-06T21:37:30.063Z,11.38
2023-05-06T21:39:57.628Z,10.32
2023-05-06T21:42:24.811Z,10.65
2023-05-06T21:44:51.969Z,10.65
2023-05-06T21:47:19.430Z,9.05
2023-05-06T21:49:46.591Z,9.43
2023-05-06T21:52:13.759Z,11.10
2023-05-06T21:54:41.220Z,10.00
2023-05-06T21:57:09.114Z,10.13
2023-05-06T21:59:36.369Z,9.98
2023-05-06T22:02:04.139Z,9.80
2023-05-06T22:04:31.705Z,8.30
2023-05-06T22:06:58.881Z,15.73
2023-05-06T22:09:26.105Z,17.35
2023-05-06T22:11:53.599Z,17.83
2023-05-06T22:14:24.301Z,14.43
2023-05-06T22:16:54.646Z,9.60
2023-05-06T22:19:21.892Z,8.98
2023-05-06T22:21:49.113Z,8.05
2023-05-06T22:24:16.712Z,9.23
2023-05-06T22:26:43.882Z,8.38
2023-05-06T22:29:11.121Z,7.30
2023-05-06T22:31:38.724Z,6.15
2023-05-06T22:34:05.971Z,6.00
2023-05-06T22:36:33.679Z,6.65
2023-05-06T22:39:01.828Z,6.15
2023-05-06T22:41:30.429Z,7.25
2023-05-06T22:43:59.231Z,6.72
2023-05-06T22:46:26.835Z,7.15
2023-05-06T22:48:54.074Z,7.12
2023-05-06T22:51:21.347Z,6.25
2023-05-06T22:53:48.796Z,6.97
2023-05-06T22:56:15.979Z,7.18
2023-05-06T22:58:43.605Z,6.28
2023-05-06T23:01:11.915Z,7.40
2023-05-06T23:03:39.116Z,6.60
2023-05-06T23:06:06.537Z,6.97
2023-05-06T23:08:34.064Z,7.60
2023-05-06T23:11:01.820Z,6.43
2023-05-06T23:13:31.250Z,6.82
2023-05-06T23:15:58.750Z,7.25
2023-05-06T23:18:25.966Z,7.32
2023-05-06T23:20:53.148Z,6.78
2023-05-06T23:23:20.578Z,6.53
2023-05-06T23:25:47.748Z,6.82
2023-05-06T23:28:14.984Z,6.87
2023-05-06T23:30:42.513Z,6.60
2023-05-06T23:33:09.757Z,6.45
2023-05-06T23:35:37.020Z,6.62
2023-05-06T23:38:04.546Z,8.10
2023-05-06T23:40:31.708Z,7.22
2023-05-06T23:42:58.869Z,6.90
2023-05-06T23:45:26.865Z,6.75
2023-05-06T23:47:54.694Z,7.18
2023-05-06T23:50:22.018Z,6.40
2023-05-06T23:52:49.505Z,6.72
2023-05-06T23:55:16.684Z,6.53
2023-05-06T23:57:44.068Z,7.18
